IBE2902 LEMD-LEPA
Flight info
| Callsign | IBE2902 |
|---|---|
| Flight time | N/A |
| Altitude | 30000 |
| Route | TOLSO |
| Aircraft | A320/M-SDE3FGHIRWY/LB1 |
Departure
| Time | N/A |
|---|---|
| Airport | Adolfo Suárez Madrid–Barajas Airport (LEMD) |
Arrival
| Time | 2026-05-05 17:57 |
|---|---|
| Airport | Palma de Mallorca Airport (LEPA) |
| Time | Latitude | Longitude | Altitude | Speed | Heading |
|---|---|---|---|---|---|
| 2026-05-05 17:35 | 40.39201 | 2.43071 | 22316 ft | 335 kts | 176° |
| 2026-05-05 17:35 | 40.36955 | 2.43845 | 21929 ft | 332 kts | 175° |
| 2026-05-05 17:36 | 40.34737 | 2.44611 | 21543 ft | 328 kts | 175° |
| 2026-05-05 17:36 | 40.32540 | 2.45372 | 21161 ft | 325 kts | 175° |
| 2026-05-05 17:36 | 40.30366 | 2.46129 | 20787 ft | 322 kts | 175° |
| 2026-05-05 17:36 | 40.28213 | 2.46878 | 20415 ft | 319 kts | 175° |
| 2026-05-05 17:37 | 40.26076 | 2.47617 | 20042 ft | 316 kts | 175° |
| 2026-05-05 17:37 | 40.23954 | 2.48351 | 19675 ft | 315 kts | 174° |
| 2026-05-05 17:37 | 40.21890 | 2.49415 | 19243 ft | 326 kts | 160° |
| 2026-05-05 17:37 | 40.20009 | 2.51171 | 18808 ft | 340 kts | 145° |
| 2026-05-05 17:38 | 40.18471 | 2.53600 | 18326 ft | 356 kts | 129° |
| 2026-05-05 17:38 | 40.17217 | 2.56413 | 17806 ft | 359 kts | 127° |
| 2026-05-05 17:38 | 40.15952 | 2.59281 | 17356 ft | 358 kts | 127° |
| 2026-05-05 17:38 | 40.14710 | 2.62099 | 16917 ft | 357 kts | 127° |
| 2026-05-05 17:39 | 40.13474 | 2.64910 | 16488 ft | 356 kts | 127° |
| 2026-05-05 17:39 | 40.12241 | 2.67717 | 16037 ft | 356 kts | 126° |
| 2026-05-05 17:39 | 40.11014 | 2.70510 | 15625 ft | 354 kts | 126° |
| 2026-05-05 17:39 | 40.09785 | 2.73303 | 15197 ft | 354 kts | 126° |
| 2026-05-05 17:40 | 40.08555 | 2.76081 | 14780 ft | 353 kts | 126° |
| 2026-05-05 17:40 | 40.07322 | 2.78845 | 14370 ft | 351 kts | 126° |
| 2026-05-05 17:40 | 40.06093 | 2.81595 | 13958 ft | 350 kts | 126° |
| 2026-05-05 17:40 | 40.04855 | 2.84376 | 13516 ft | 349 kts | 126° |
| 2026-05-05 17:41 | 40.03639 | 2.87109 | 13080 ft | 347 kts | 126° |
| 2026-05-05 17:41 | 40.02430 | 2.89822 | 12661 ft | 345 kts | 126° |
| 2026-05-05 17:41 | 40.01229 | 2.92511 | 12250 ft | 342 kts | 125° |
| 2026-05-05 17:41 | 40.00035 | 2.95183 | 11832 ft | 340 kts | 125° |
| 2026-05-05 17:42 | 39.98845 | 2.97846 | 11397 ft | 338 kts | 124° |
| 2026-05-05 17:42 | 39.97721 | 3.00536 | 10977 ft | 338 kts | 122° |
| 2026-05-05 17:42 | 39.96631 | 3.03216 | 10789 ft | 328 kts | 122° |
| 2026-05-05 17:42 | 39.95577 | 3.05809 | 10542 ft | 322 kts | 122° |
| 2026-05-05 17:43 | 39.94534 | 3.08369 | 10266 ft | 316 kts | 122° |
| 2026-05-05 17:43 | 39.93519 | 3.10859 | 10123 ft | 307 kts | 122° |
| 2026-05-05 17:43 | 39.92527 | 3.13300 | 9860 ft | 303 kts | 122° |
| 2026-05-05 17:43 | 39.91544 | 3.15710 | 9518 ft | 300 kts | 122° |
| 2026-05-05 17:44 | 39.90558 | 3.18102 | 9158 ft | 299 kts | 122° |
| 2026-05-05 17:44 | 39.89578 | 3.20474 | 8784 ft | 297 kts | 122° |
| 2026-05-05 17:44 | 39.88596 | 3.22840 | 8414 ft | 295 kts | 122° |
| 2026-05-05 17:44 | 39.87618 | 3.25186 | 8043 ft | 294 kts | 122° |
| 2026-05-05 17:45 | 39.86646 | 3.27511 | 7677 ft | 292 kts | 122° |
| 2026-05-05 17:45 | 39.85676 | 3.29826 | 7404 ft | 291 kts | 122° |
| 2026-05-05 17:45 | 39.84706 | 3.32134 | 7154 ft | 290 kts | 122° |
| 2026-05-05 17:45 | 39.83723 | 3.34466 | 6910 ft | 289 kts | 122° |
| 2026-05-05 17:46 | 39.82768 | 3.36729 | 6668 ft | 288 kts | 122° |
| 2026-05-05 17:46 | 39.81626 | 3.38869 | 6420 ft | 281 kts | 140° |
| 2026-05-05 17:46 | 39.80043 | 3.40273 | 6179 ft | 273 kts | 162° |
| 2026-05-05 17:46 | 39.78228 | 3.40781 | 6007 ft | 265 kts | 184° |
| 2026-05-05 17:47 | 39.76439 | 3.40388 | 5982 ft | 260 kts | 204° |
| 2026-05-05 17:47 | 39.74899 | 3.39212 | 5980 ft | 257 kts | 223° |
| 2026-05-05 17:47 | 39.73790 | 3.37433 | 5981 ft | 249 kts | 243° |
| 2026-05-05 17:47 | 39.73246 | 3.35395 | 5983 ft | 232 kts | 260° |
| 2026-05-05 17:48 | 39.73064 | 3.33372 | 5912 ft | 221 kts | 262° |
| 2026-05-05 17:48 | 39.72890 | 3.31402 | 5786 ft | 220 kts | 262° |
| 2026-05-05 17:48 | 39.72713 | 3.29421 | 5656 ft | 227 kts | 263° |
| 2026-05-05 17:48 | 39.72521 | 3.27307 | 5540 ft | 241 kts | 263° |
| 2026-05-05 17:49 | 39.72324 | 3.25133 | 5409 ft | 243 kts | 263° |
| 2026-05-05 17:49 | 39.72127 | 3.22945 | 5284 ft | 244 kts | 263° |
| 2026-05-05 17:49 | 39.71932 | 3.20765 | 5164 ft | 243 kts | 263° |
| 2026-05-05 17:49 | 39.71739 | 3.18589 | 5029 ft | 242 kts | 264° |
| 2026-05-05 17:50 | 39.71545 | 3.16420 | 4916 ft | 242 kts | 263° |
| 2026-05-05 17:50 | 39.71351 | 3.14253 | 4793 ft | 241 kts | 264° |
| 2026-05-05 17:50 | 39.71156 | 3.12092 | 4665 ft | 241 kts | 264° |
| 2026-05-05 17:50 | 39.70960 | 3.09936 | 4550 ft | 241 kts | 262° |
| 2026-05-05 17:51 | 39.70443 | 3.07875 | 4415 ft | 243 kts | 244° |
| 2026-05-05 17:51 | 39.69584 | 3.05986 | 4287 ft | 243 kts | 240° |
| 2026-05-05 17:51 | 39.68700 | 3.04151 | 4158 ft | 234 kts | 240° |
| 2026-05-05 17:51 | 39.67871 | 3.02395 | 4029 ft | 222 kts | 240° |
| 2026-05-05 17:52 | 39.67082 | 3.00711 | 3905 ft | 216 kts | 241° |
| 2026-05-05 17:52 | 39.66302 | 2.99044 | 3779 ft | 216 kts | 241° |
| 2026-05-05 17:52 | 39.65521 | 2.97377 | 3661 ft | 216 kts | 241° |
| 2026-05-05 17:52 | 39.64744 | 2.95720 | 3426 ft | 214 kts | 241° |
| 2026-05-05 17:53 | 39.64221 | 2.94606 | 3248 ft | 214 kts | 241° |
| 2026-05-05 17:53 | 39.63446 | 2.92956 | 2967 ft | 214 kts | 241° |
| 2026-05-05 17:53 | 39.62674 | 2.91313 | 2680 ft | 211 kts | 240° |
| 2026-05-05 17:53 | 39.61922 | 2.89714 | 2421 ft | 204 kts | 240° |
| 2026-05-05 17:54 | 39.61200 | 2.88179 | 2165 ft | 193 kts | 239° |
| 2026-05-05 17:54 | 39.60533 | 2.86761 | 1904 ft | 177 kts | 240° |
| 2026-05-05 17:54 | 39.59920 | 2.85460 | 1693 ft | 159 kts | 238° |
| 2026-05-05 17:54 | 39.59379 | 2.84310 | 1483 ft | 141 kts | 239° |
| 2026-05-05 17:55 | 39.58873 | 2.83235 | 1294 ft | 137 kts | 238° |
| 2026-05-05 17:55 | 39.58378 | 2.82186 | 1108 ft | 137 kts | 237° |
| 2026-05-05 17:55 | 39.57878 | 2.81130 | 902 ft | 137 kts | 237° |
| 2026-05-05 17:55 | 39.57390 | 2.80100 | 707 ft | 135 kts | 237° |
| 2026-05-05 17:56 | 39.56893 | 2.79057 | 570 ft | 138 kts | 237° |
| 2026-05-05 17:56 | 39.56412 | 2.78000 | 391 ft | 136 kts | 238° |
| 2026-05-05 17:56 | 39.55907 | 2.76963 | 216 ft | 136 kts | 238° |
| 2026-05-05 17:56 | 39.55419 | 2.75914 | 50 ft | 131 kts | 238° |
| 2026-05-05 17:57 | 39.54988 | 2.75021 | 30 ft | 94 kts | 237° |
| 2026-05-05 17:57 | 39.54729 | 2.74439 | 30 ft | 57 kts | 238° |
| 2026-05-05 17:57 | 39.54596 | 2.74146 | 30 ft | 33 kts | 245° |
| 2026-05-05 17:57 | 39.54550 | 2.73888 | 30 ft | 20 kts | 273° |
| 2026-05-05 17:58 | 39.54554 | 2.73819 | 30 ft | 0 kts | 272° |
| 2026-05-05 17:59 | 39.54556 | 2.73779 | 30 ft | 13 kts | 274° |
| 2026-05-05 17:59 | 39.54587 | 2.73656 | 30 ft | 15 kts | 310° |
| 2026-05-05 18:00 | 39.54649 | 2.73540 | 30 ft | 16 kts | 322° |
| 2026-05-05 18:00 | 39.54740 | 2.73464 | 30 ft | 15 kts | 328° |
| 2026-05-05 18:00 | 39.54789 | 2.73404 | 30 ft | 8 kts | 296° |
| 2026-05-05 18:00 | 39.54795 | 2.73349 | 30 ft | 6 kts | 268° |
| 2026-05-05 18:01 | 39.54794 | 2.73331 | 30 ft | 0 kts | 267° |